Time;durP1;ratioP1;P1;durP2;ratioP2;P2;SDS_P1;SDS_P2;PMS_P1;PMS_P2;Temp;Humidity;BMP_temperature;BMP_pressure;BME280_temperature;BME280_humidity;BME280_pressure;Samples;Min_cycle;Max_cycle;Signal;HPM_P1;HPM_P2
2022/07/27 00:00:45;;;;;;;24.43;15.67;;;;;;;16.00;100.00;99567.59;4197785;28;20300;-66
2022/07/27 00:03:12;;;;;;;28.37;14.57;;;;;;;15.92;100.00;99562.41;4194377;28;20248;-66
2022/07/27 00:05:39;;;;;;;20.80;13.87;;;;;;;16.02;100.00;99567.41;4195092;28;20614;-64
2022/07/27 00:08:06;;;;;;;23.90;13.27;;;;;;;16.02;100.00;99557.47;4196056;28;20244;-65
2022/07/27 00:10:33;;;;;;;23.13;12.93;;;;;;;16.00;100.00;99553.34;4192708;28;20289;-63
2022/07/27 00:13:00;;;;;;;21.97;12.20;;;;;;;15.96;100.00;99560.97;4192088;28;20992;-65
2022/07/27 00:15:26;;;;;;;18.83;12.30;;;;;;;16.06;100.00;99565.13;4195941;28;21203;-65
2022/07/27 00:17:54;;;;;;;28.70;12.03;;;;;;;16.09;100.00;99564.75;4195966;28;20333;-66
2022/07/27 00:20:20;;;;;;;21.70;10.93;;;;;;;16.00;100.00;99562.22;4192502;28;20249;-64
2022/07/27 00:22:53;;;;;;;18.33;9.87;;;;;;;16.05;100.00;99572.34;4196112;28;20233;-64
2022/07/27 00:25:21;;;;;;;13.83;9.53;;;;;;;16.10;100.00;99577.13;4204275;28;20232;-65
2022/07/27 00:27:48;;;;;;;17.27;8.27;;;;;;;16.08;100.00;99573.81;4192123;28;20347;-65
2022/07/27 00:30:15;;;;;;;16.40;8.77;;;;;;;16.10;100.00;99580.63;4197432;28;20235;-64
2022/07/27 00:32:41;;;;;;;14.37;8.27;;;;;;;16.12;100.00;99583.13;4195966;28;20291;-65
2022/07/27 00:35:08;;;;;;;11.10;7.03;;;;;;;16.14;100.00;99581.06;4210545;28;21362;-65
2022/07/27 00:37:35;;;;;;;11.27;7.50;;;;;;;16.14;100.00;99591.78;4194884;28;20510;-65
2022/07/27 00:40:02;;;;;;;15.63;7.93;;;;;;;16.13;100.00;99596.34;4190710;28;20545;-64
2022/07/27 00:42:30;;;;;;;17.47;7.47;;;;;;;16.15;100.00;99588.06;4192636;28;20232;-64
2022/07/27 00:44:56;;;;;;;13.43;7.13;;;;;;;16.15;100.00;99598.81;4188115;28;25493;-65
2022/07/27 00:47:24;;;;;;;9.50;6.90;;;;;;;16.13;100.00;99596.34;4193828;28;22122;-64
2022/07/27 00:49:50;;;;;;;12.40;6.60;;;;;;;16.15;100.00;99598.81;4200110;28;20291;-65
2022/07/27 00:52:17;;;;;;;12.97;6.70;;;;;;;16.19;100.00;99605.44;4194746;28;20249;-65
2022/07/27 00:54:44;;;;;;;13.40;5.87;;;;;;;16.19;100.00;99605.44;4194134;28;22988;-64
2022/07/27 00:57:12;;;;;;;12.07;6.43;;;;;;;16.12;100.00;99615.31;4202270;28;22956;-64
2022/07/27 00:59:38;;;;;;;18.73;5.70;;;;;;;16.16;100.00;99632.69;4190658;28;21408;-65
2022/07/27 01:02:06;;;;;;;10.70;5.40;;;;;;;16.18;100.00;99626.09;4195785;28;20243;-65
2022/07/27 01:04:37;;;;;;;8.03;5.27;;;;;;;16.15;100.00;99623.78;4201800;28;22617;-65
2022/07/27 01:07:06;;;;;;;11.03;5.60;;;;;;;16.14;100.00;99621.31;4198082;28;25626;-64
2022/07/27 01:12:22;;;;;;;12.93;5.30;;;;;;;16.15;100.00;99634.53;4200697;28;20457;-64
2022/07/27 01:14:49;;;;;;;12.60;4.70;;;;;;;16.16;100.00;99633.50;4194096;28;21741;-65
2022/07/27 01:17:16;;;;;;;9.87;5.17;;;;;;;16.22;100.00;99626.50;4194995;28;21012;-65
2022/07/27 01:19:43;;;;;;;13.17;4.80;;;;;;;16.20;100.00;99637.44;4194830;28;20233;-64
2022/07/27 01:22:10;;;;;;;8.40;4.83;;;;;;;16.13;100.00;99627.69;4201139;28;21150;-65
2022/07/27 01:24:37;;;;;;;9.83;4.70;;;;;;;16.12;100.00;99636.78;4198022;28;20258;-65
2022/07/27 01:27:05;;;;;;;9.53;4.47;;;;;;;16.07;100.00;99633.88;4194688;28;20367;-64
2022/07/27 01:29:32;;;;;;;7.73;4.93;;;;;;;16.08;100.00;99632.84;4206533;28;20234;-65
2022/07/27 01:32:00;;;;;;;6.40;3.90;;;;;;;16.01;100.00;99641.72;4196953;28;20692;-64
2022/07/27 01:34:27;;;;;;;10.27;4.57;;;;;;;16.01;100.00;99635.50;4191605;28;20247;-64
2022/07/27 01:36:54;;;;;;;10.03;4.60;;;;;;;15.99;100.00;99640.22;4192573;28;20265;-66
2022/07/27 01:39:21;;;;;;;7.47;4.40;;;;;;;15.92;100.00;99642.91;4214998;28;25208;-66
2022/07/27 01:41:47;;;;;;;12.40;4.03;;;;;;;15.99;100.00;99633.03;4189686;28;23515;-66
2022/07/27 01:44:14;;;;;;;10.80;3.97;;;;;;;16.02;100.00;99635.31;4193320;28;20240;-64
2022/07/27 01:46:41;;;;;;;12.00;4.30;;;;;;;15.95;100.00;99631.78;4195570;28;20245;-65
2022/07/27 01:49:07;;;;;;;6.60;3.60;;;;;;;15.86;100.00;99626.78;4193213;28;20237;-66
2022/07/27 01:51:35;;;;;;;8.57;4.10;;;;;;;15.85;100.00;99631.31;4187603;28;20411;-65
2022/07/27 01:54:02;;;;;;;8.47;3.53;;;;;;;15.88;100.00;99641.66;4191439;28;20237;-64
2022/07/27 01:56:29;;;;;;;7.40;3.60;;;;;;;15.84;100.00;99643.06;4197991;28;20220;-65
2022/07/27 01:58:55;;;;;;;8.00;3.30;;;;;;;15.85;100.00;99647.41;4178916;28;20229;-64
2022/07/27 02:01:22;;;;;;;7.67;4.00;;;;;;;15.79;100.00;99640.16;4194305;28;20233;-65
2022/07/27 02:03:48;;;;;;;5.63;3.40;;;;;;;15.76;100.00;99649.44;4194306;28;21653;-63
2022/07/27 02:06:15;;;;;;;7.27;3.40;;;;;;;15.75;100.00;99657.66;4176108;28;20229;-65
2022/07/27 02:08:41;;;;;;;7.47;3.40;;;;;;;15.67;100.00;99649.75;4188967;28;20550;-65
2022/07/27 02:13:53;;;;;;;11.73;3.23;;;;;;;15.58;100.00;99662.50;4196082;28;20225;-65
2022/07/27 02:16:20;;;;;;;5.87;3.23;;;;;;;15.56;100.00;99656.50;4190025;28;20245;-64
2022/07/27 02:18:49;;;;;;;7.27;3.30;;;;;;;15.47;100.00;99649.63;4193371;28;20226;-65
2022/07/27 02:21:16;;;;;;;10.27;3.33;;;;;;;15.48;100.00;99662.84;4193918;28;20284;-65
2022/07/27 02:23:44;;;;;;;8.73;3.37;;;;;;;15.58;100.00;99660.63;4187413;28;20232;-64
2022/07/27 02:26:10;;;;;;;9.60;3.40;;;;;;;15.51;100.00;99657.06;4193751;28;20244;-67
2022/07/27 02:28:38;;;;;;;8.50;3.27;;;;;;;15.55;100.00;99668.25;4192124;28;20245;-64
2022/07/27 02:31:04;;;;;;;11.07;3.50;;;;;;;15.57;100.00;99667.03;4198950;28;22885;-63
2022/07/27 02:33:31;;;;;;;7.93;3.10;;;;;;;15.59;100.00;99669.50;4193151;28;20237;-64
2022/07/27 02:35:58;;;;;;;6.30;2.90;;;;;;;15.62;100.00;99672.63;4194363;28;20237;-64
2022/07/27 02:38:25;;;;;;;9.23;3.10;;;;;;;15.67;100.00;99677.41;4208653;28;20655;-65
2022/07/27 02:40:51;;;;;;;7.80;3.00;;;;;;;15.65;100.00;99679.44;4188650;28;22635;-64
2022/07/27 02:43:18;;;;;;;5.43;2.97;;;;;;;15.60;100.00;99682.72;4196693;28;21275;-63
2022/07/27 02:45:44;;;;;;;6.67;3.13;;;;;;;15.54;100.00;99678.13;4185404;28;21104;-63
2022/07/27 02:48:12;;;;;;;6.90;3.30;;;;;;;15.51;100.00;99678.53;4195865;28;20636;-65
2022/07/27 02:50:39;;;;;;;8.47;3.20;;;;;;;15.44;100.00;99682.19;4196005;28;21684;-65
2022/07/27 02:53:05;;;;;;;7.30;3.00;;;;;;;15.52;100.00;99680.22;4200388;28;26243;-63
2022/07/27 02:55:32;;;;;;;5.13;3.13;;;;;;;15.48;100.00;99689.66;4195498;28;20340;-64
2022/07/27 02:57:58;;;;;;;6.67;2.83;;;;;;;15.46;100.00;99690.88;4191987;28;20238;-64
2022/07/27 03:00:25;;;;;;;5.20;3.00;;;;;;;15.45;100.00;99694.56;4198052;28;20240;-65
2022/07/27 03:02:52;;;;;;;5.33;2.80;;;;;;;15.34;100.00;99690.59;4197713;28;20236;-64
2022/07/27 03:05:18;;;;;;;5.83;3.00;;;;;;;15.29;100.00;99696.53;4187072;28;20949;-65
2022/07/27 03:07:45;;;;;;;7.63;2.90;;;;;;;15.29;100.00;99698.34;4200630;28;20248;-64
2022/07/27 03:10:11;;;;;;;8.93;2.90;;;;;;;15.25;100.00;99689.06;4200298;28;20410;-65
2022/07/27 03:12:38;;;;;;;6.87;2.50;;;;;;;15.22;100.00;99694.78;4194989;28;21777;-64
2022/07/27 03:15:05;;;;;;;5.43;2.83;;;;;;;15.22;100.00;99700.16;4202110;28;23887;-65
2022/07/27 03:17:31;;;;;;;5.03;2.70;;;;;;;15.20;100.00;99703.03;4195157;28;20240;-64
2022/07/27 03:19:58;;;;;;;7.57;2.53;;;;;;;15.25;100.00;99705.97;4199136;28;20233;-64
2022/07/27 03:22:29;;;;;;;3.73;2.50;;;;;;;15.21;100.00;99710.06;4191656;28;22154;-64
2022/07/27 03:24:56;;;;;;;5.53;2.30;;;;;;;15.28;100.00;99720.84;4202294;28;20241;-64
2022/07/27 03:27:22;;;;;;;4.13;2.00;;;;;;;15.36;100.00;99724.22;4179739;28;20605;-68
2022/07/27 03:29:49;;;;;;;4.57;1.77;;;;;;;15.43;100.00;99729.63;4189714;28;20233;-64
2022/07/27 03:32:15;;;;;;;8.23;2.17;;;;;;;15.29;100.00;99725.16;4181271;28;20246;-64
2022/07/27 03:34:42;;;;;;;3.70;2.17;;;;;;;15.41;100.00;99731.69;4231421;28;20237;-63
2022/07/27 03:37:09;;;;;;;10.13;1.90;;;;;;;15.48;100.00;99737.09;4232600;28;21858;-65
2022/07/27 03:39:36;;;;;;;7.67;2.17;;;;;;;15.47;100.00;99735.44;4208316;28;20316;-62
2022/07/27 03:42:05;;;;;;;5.63;2.13;;;;;;;15.36;100.00;99739.47;4220374;28;20295;-64
2022/07/27 03:44:32;;;;;;;8.20;1.80;;;;;;;15.37;100.00;99741.94;4220916;28;21710;-63
2022/07/27 03:46:59;;;;;;;10.53;2.30;;;;;;;15.37;100.00;99738.44;4232461;28;20232;-64
2022/07/27 03:49:26;;;;;;;5.23;1.83;;;;;;;15.43;100.00;99745.72;4229095;28;20296;-64
2022/07/27 03:51:52;;;;;;;3.17;1.80;;;;;;;15.48;100.00;99742.47;4217258;28;20867;-65
2022/07/27 03:54:19;;;;;;;7.60;1.80;;;;;;;15.48;100.00;99754.00;4237657;28;20237;-63
2022/07/27 03:56:45;;;;;;;5.67;2.03;;;;;;;15.34;100.00;99752.25;4207339;28;20243;-64
2022/07/27 03:59:12;;;;;;;8.70;1.90;;;;;;;15.37;100.00;99743.81;4205847;28;22344;-65
2022/07/27 04:01:40;;;;;;;4.97;1.63;;;;;;;15.38;100.00;99753.50;4193005;28;20297;-64
2022/07/27 04:04:07;;;;;;;5.10;1.63;;;;;;;15.47;100.00;99757.69;4211790;28;20572;-63
2022/07/27 04:06:33;;;;;;;3.53;1.60;;;;;;;15.33;100.00;99755.94;4210994;28;21176;-63
2022/07/27 04:09:00;;;;;;;6.23;2.00;;;;;;;15.24;100.00;99763.28;4203126;28;20614;-65
2022/07/27 04:11:39;;;;;;;6.70;2.30;;;;;;;15.26;100.00;99760.41;4221246;28;20237;-67
2022/07/27 04:14:17;;;;;;;7.50;1.60;;;;;;;15.22;100.00;99753.75;4209766;28;21053;-63
2022/07/27 04:16:43;;;;;;;7.00;1.90;;;;;;;15.29;100.00;99762.69;4207809;28;20586;-65
2022/07/27 04:19:10;;;;;;;4.27;1.77;;;;;;;15.44;100.00;99766.13;4187137;28;22879;-64
2022/07/27 04:21:37;;;;;;;3.27;1.60;;;;;;;15.43;100.00;99763.63;4198797;28;20237;-65
2022/07/27 04:24:05;;;;;;;4.80;1.93;;;;;;;15.56;100.00;99771.81;4201980;28;21797;-62
2022/07/27 04:26:32;;;;;;;8.20;1.93;;;;;;;15.32;100.00;99770.38;4197514;28;20402;-65
2022/07/27 04:28:59;;;;;;;3.93;1.67;;;;;;;15.35;100.00;99778.03;4196893;28;20242;-65
2022/07/27 04:31:26;;;;;;;6.23;1.60;;;;;;;15.33;100.00;99778.19;4223095;28;20436;-65
2022/07/27 04:33:52;;;;;;;6.90;1.80;;;;;;;15.36;100.00;99777.00;4203984;28;20243;-66
2022/07/27 04:36:19;;;;;;;8.07;1.87;;;;;;;15.29;100.00;99776.09;4194763;28;20237;-65
2022/07/27 04:38:46;;;;;;;4.60;1.77;;;;;;;15.36;100.00;99785.06;4201423;28;20240;-65
2022/07/27 04:41:12;;;;;;;6.50;1.47;;;;;;;15.28;100.00;99785.16;4198590;28;20611;-64
2022/07/27 04:43:39;;;;;;;5.53;1.90;;;;;;;15.25;100.00;99781.03;4191762;28;21396;-66
2022/07/27 04:46:06;;;;;;;5.17;1.73;;;;;;;15.39;100.00;99788.16;4202384;28;20236;-65
2022/07/27 04:48:38;;;;;;;5.07;1.73;;;;;;;15.37;100.00;99789.38;4200243;28;20237;-65
2022/07/27 04:51:06;;;;;;;7.40;1.93;;;;;;;15.54;100.00;99795.31;4196671;28;20322;-65
2022/07/27 04:53:35;;;;;;;3.10;1.70;;;;;;;15.58;99.00;99792.03;4196144;28;20240;-64
2022/07/27 04:56:18;;;;;;;5.27;1.67;;;;;;;15.65;97.53;99788.59;4199607;28;20339;-64
2022/07/27 04:58:45;;;;;;;4.20;1.50;;;;;;;15.67;97.31;99789.25;4198222;28;20260;-67
2022/07/27 05:01:11;;;;;;;3.80;1.10;;;;;;;15.80;96.67;99798.25;4192405;28;20275;-64
2022/07/27 05:03:39;;;;;;;8.80;1.53;;;;;;;15.82;95.42;99795.34;4195266;28;22806;-65
2022/07/27 05:06:06;;;;;;;4.80;1.40;;;;;;;15.91;94.95;99801.41;4193735;28;21185;-64
2022/07/27 05:08:34;;;;;;;6.07;1.50;;;;;;;16.02;95.59;99798.19;4195124;28;22999;-66
2022/07/27 05:11:00;;;;;;;7.60;1.40;;;;;;;16.06;94.53;99799.47;4198974;28;20233;-65
2022/07/27 05:13:28;;;;;;;6.60;1.40;;;;;;;15.94;94.40;99796.47;4201871;28;20286;-64
2022/07/27 05:15:54;;;;;;;11.47;1.70;;;;;;;15.96;94.36;99783.69;4190959;28;20247;-65
2022/07/27 05:18:22;;;;;;;4.47;1.30;;;;;;;16.12;92.40;99787.09;4196830;28;20244;-65
2022/07/27 05:20:48;;;;;;;5.53;1.63;;;;;;;16.13;92.39;99797.66;4206194;28;20356;-65
2022/07/27 05:23:16;;;;;;;4.63;1.30;;;;;;;16.13;90.59;99796.81;4195589;28;20232;-64
2022/07/27 05:25:42;;;;;;;2.80;1.17;;;;;;;16.11;90.54;99798.84;4192247;28;20887;-66
2022/07/27 05:28:12;;;;;;;5.33;1.40;;;;;;;16.25;91.07;99795.25;4209271;28;21662;-64
2022/07/27 05:30:39;;;;;;;8.23;1.37;;;;;;;16.36;89.00;99799.22;4201188;28;21210;-65
2022/07/27 05:33:06;;;;;;;6.53;1.43;;;;;;;16.51;85.45;99802.63;4190222;28;20292;-65
2022/07/27 05:35:32;;;;;;;6.03;1.37;;;;;;;16.40;84.52;99804.00;4198305;28;20276;-64
2022/07/27 05:37:59;;;;;;;6.37;1.37;;;;;;;16.52;83.57;99803.44;4195940;28;20235;-66
2022/07/27 05:40:25;;;;;;;5.17;1.10;;;;;;;16.69;83.27;99804.75;4186735;28;20640;-64
2022/07/27 05:42:52;;;;;;;5.13;1.10;;;;;;;16.85;81.30;99807.09;4207249;28;20594;-64
2022/07/27 05:45:19;;;;;;;6.23;1.20;;;;;;;16.92;77.11;99809.00;4200216;28;20233;-65
2022/07/27 05:47:45;;;;;;;4.27;1.40;;;;;;;17.11;79.39;99810.91;4193523;28;20233;-66
2022/07/27 05:50:13;;;;;;;7.93;1.10;;;;;;;17.89;75.03;99808.53;4196241;28;22697;-65
2022/07/27 05:52:39;;;;;;;7.10;1.43;;;;;;;18.34;72.47;99808.66;4202090;28;22157;-65
2022/07/27 05:55:06;;;;;;;4.13;1.10;;;;;;;19.25;67.77;99819.53;4215872;28;25877;-66
2022/07/27 05:57:33;;;;;;;2.83;0.90;;;;;;;20.14;62.72;99833.81;4215723;28;20240;-65
2022/07/27 06:00:00;;;;;;;4.60;1.03;;;;;;;20.96;58.96;99841.66;4208837;28;20283;-64
2022/07/27 06:02:29;;;;;;;4.93;1.10;;;;;;;21.70;54.25;99842.28;4201417;28;21612;-66
2022/07/27 06:04:56;;;;;;;8.40;1.10;;;;;;;22.49;51.23;99842.00;4208330;28;20359;-65
2022/07/27 06:10:08;;;;;;;4.47;1.00;;;;;;;23.04;47.29;99855.13;4201413;28;20469;-65
2022/07/27 06:12:42;;;;;;;4.47;1.17;;;;;;;24.35;44.50;99858.69;4192486;28;20620;-64
2022/07/27 06:15:10;;;;;;;3.47;1.03;;;;;;;25.14;38.97;99874.72;4200378;28;20242;-64
2022/07/27 06:17:36;;;;;;;4.63;1.10;;;;;;;25.48;38.30;99877.31;4197982;28;21586;-64
2022/07/27 06:20:04;;;;;;;3.63;0.90;;;;;;;25.52;36.62;99880.31;4191339;28;20586;-63
2022/07/27 06:22:31;;;;;;;9.83;1.20;;;;;;;26.59;35.89;99888.59;4193014;28;20418;-63
2022/07/27 06:24:58;;;;;;;2.20;0.83;;;;;;;27.85;33.38;99900.22;4201584;28;24719;-63
2022/07/27 06:27:24;;;;;;;4.93;1.03;;;;;;;28.47;31.15;99903.78;4197098;28;20231;-62
2022/07/27 06:29:55;;;;;;;4.00;1.13;;;;;;;27.42;31.85;99896.88;4196807;28;22925;-63
2022/07/27 06:32:21;;;;;;;11.97;1.37;;;;;;;27.93;30.06;99890.66;4207856;28;21754;-63
2022/07/27 06:34:48;;;;;;;4.10;0.90;;;;;;;28.91;28.94;99894.06;4203757;28;20287;-63
2022/07/27 06:37:15;;;;;;;11.70;1.10;;;;;;;29.12;26.77;99900.31;4192741;28;20241;-64
2022/07/27 06:39:45;;;;;;;8.77;1.20;;;;;;;29.62;26.17;99901.13;4198715;28;20233;-63
2022/07/27 06:42:15;;;;;;;5.95;1.15;;;;;;;27.91;28.53;99892.84;4200942;28;20264;-63
2022/07/27 06:44:41;;;;;;;6.77;1.07;;;;;;;26.94;30.22;99879.75;4202929;28;20399;-63
2022/07/27 06:47:08;;;;;;;5.47;1.13;;;;;;;28.08;28.79;99884.38;4188395;28;20233;-63
2022/07/27 06:49:34;;;;;;;5.47;1.10;;;;;;;28.11;28.41;99884.63;4196433;28;23649;-63
2022/07/27 06:52:01;;;;;;;7.90;1.10;;;;;;;27.48;29.75;99878.56;4192764;28;20406;-64
2022/07/27 06:54:28;;;;;;;8.10;1.90;;;;;;;28.34;28.60;99877.75;4186884;28;20230;-63
2022/07/27 06:56:54;;;;;;;4.53;1.30;;;;;;;29.76;26.34;99893.91;4198498;28;21168;-64
2022/07/27 06:59:21;;;;;;;5.90;1.53;;;;;;;30.60;23.64;99907.44;4205742;28;20233;-64
2022/07/27 07:01:47;;;;;;;7.10;1.13;;;;;;;31.52;23.76;99900.81;4188686;28;20862;-63
2022/07/27 07:04:14;;;;;;;5.18;0.93;;;;;;;31.54;23.33;99895.84;4204255;28;20288;-62
2022/07/27 07:06:41;;;;;;;3.63;0.90;;;;;;;32.34;21.45;99906.94;4212410;28;20243;-64
2022/07/27 07:09:08;;;;;;;4.95;1.30;;;;;;;31.91;21.94;99907.94;4210436;28;20289;-65
2022/07/27 07:11:36;;;;;;;3.78;1.23;;;;;;;31.31;22.92;99889.28;4208222;28;20682;-64
2022/07/27 07:14:03;;;;;;;3.13;0.82;;;;;;;31.23;23.87;99895.41;4216421;28;20618;-64
2022/07/27 07:16:30;;;;;;;8.63;1.30;;;;;;;31.72;22.33;99893.38;4214328;28;21158;-66
2022/07/27 07:18:56;;;;;;;4.43;1.02;;;;;;;31.84;22.64;99901.16;4210776;28;20296;-63
2022/07/27 07:21:23;;;;;;;6.78;1.35;;;;;;;32.86;21.57;99907.63;4212109;28;21225;-64
2022/07/27 07:23:50;;;;;;;3.58;1.08;;;;;;;32.97;20.63;99902.72;4213053;28;20284;-65
2022/07/27 07:26:17;;;;;;;8.43;1.23;;;;;;;30.84;24.23;99879.19;4213340;28;21750;-67
2022/07/27 07:28:44;;;;;;;5.97;1.77;;;;;;;30.98;22.66;99891.09;4206415;28;22073;-65
2022/07/27 07:31:10;;;;;;;5.47;1.50;;;;;;;31.10;23.01;99885.97;4211620;28;20313;-66
2022/07/27 07:33:37;;;;;;;3.87;1.50;;;;;;;30.75;22.97;99881.72;4255216;28;20239;-63
2022/07/27 07:36:04;;;;;;;3.90;1.53;;;;;;;31.11;22.99;99884.84;4208089;28;20974;-67
2022/07/27 07:38:39;;;;;;;7.03;2.13;;;;;;;31.02;23.44;99881.13;4201544;28;21951;-66
2022/07/27 07:41:06;;;;;;;9.60;1.30;;;;;;;31.25;23.16;99889.63;4201646;28;20228;-64
2022/07/27 07:43:35;;;;;;;7.47;1.50;;;;;;;29.80;24.96;99883.16;4199982;28;22887;-65
2022/07/27 07:46:02;;;;;;;6.33;1.43;;;;;;;28.69;26.79;99875.25;4202851;28;20451;-68
2022/07/27 07:48:29;;;;;;;7.00;1.63;;;;;;;27.58;28.64;99862.16;4215623;28;20296;-66
2022/07/27 07:50:56;;;;;;;8.37;1.80;;;;;;;27.70;29.54;99873.69;4204502;28;21322;-69
2022/07/27 07:53:22;;;;;;;7.83;1.93;;;;;;;26.95;30.48;99860.38;4198595;28;20585;-67
2022/07/27 07:55:50;;;;;;;5.30;1.60;;;;;;;26.25;30.28;99853.44;4211447;28;21245;-70
2022/07/27 07:58:17;;;;;;;5.87;1.70;;;;;;;24.91;33.69;99856.78;4212860;28;20328;-56
2022/07/27 08:00:44;;;;;;;6.53;1.60;;;;;;;24.98;33.46;99859.28;4194588;28;20249;-46
2022/07/27 08:03:11;;;;;;;6.23;1.57;;;;;;;24.45;33.94;99847.97;4215097;28;20253;-41
2022/07/27 08:05:37;;;;;;;13.13;2.17;;;;;;;24.34;34.96;99848.91;4221935;28;20225;-48
2022/07/27 08:08:04;;;;;;;7.37;1.90;;;;;;;24.44;35.49;99854.47;4203475;28;20327;-50
2022/07/27 08:10:31;;;;;;;4.47;1.60;;;;;;;24.49;34.02;99856.47;4190731;28;20451;-67
2022/07/27 08:12:58;;;;;;;7.03;2.10;;;;;;;24.11;35.90;99842.59;4183709;28;22838;-66
2022/07/27 08:15:24;;;;;;;7.83;2.23;;;;;;;23.91;34.99;99850.44;4192086;28;20288;-66
2022/07/27 08:18:01;;;;;;;4.60;1.40;;;;;;;24.43;35.02;99842.78;4189095;28;20281;-65
2022/07/27 08:20:28;;;;;;;5.23;1.70;;;;;;;24.75;34.39;99854.94;4198456;28;20245;-64
2022/07/27 08:22:55;;;;;;;6.60;1.37;;;;;;;24.02;35.69;99844.06;4197576;28;20225;-66
2022/07/27 08:25:21;;;;;;;4.73;1.90;;;;;;;24.28;36.15;99850.75;4183928;28;20309;-64
2022/07/27 08:27:48;;;;;;;5.30;1.73;;;;;;;24.21;36.03;99850.09;4201406;28;21765;-63
2022/07/27 08:30:15;;;;;;;9.83;1.73;;;;;;;23.59;37.77;99843.63;4203018;28;20346;-64
2022/07/27 08:32:51;;;;;;;7.63;1.57;;;;;;;23.29;38.96;99848.50;4187382;28;21037;-66
2022/07/27 08:35:19;;;;;;;3.93;1.60;;;;;;;23.53;39.09;99850.06;4189338;28;20225;-63
2022/07/27 08:37:45;;;;;;;6.83;1.63;;;;;;;23.45;37.69;99855.88;4203926;28;20232;-65
2022/07/27 08:40:13;;;;;;;6.80;1.60;;;;;;;22.79;39.14;99854.56;4208908;28;22880;-66
2022/07/27 08:43:01;;;;;;;6.00;1.50;;;;;;;22.55;40.02;99860.84;4187394;28;20299;-69
2022/07/27 08:45:30;;;;;;;9.63;1.47;;;;;;;22.47;41.55;99857.69;4199126;28;20237;-69
2022/07/27 08:47:57;;;;;;;8.23;1.70;;;;;;;22.94;40.32;99855.72;4193960;28;20308;-67
2022/07/27 08:50:24;;;;;;;10.20;2.10;;;;;;;22.67;39.89;99863.56;4185903;28;22212;-65
2022/07/27 08:53:04;;;;;;;6.68;1.60;;;;;;;22.69;39.88;99866.84;4200547;28;22537;-66
2022/07/27 08:55:32;;;;;;;4.30;1.33;;;;;;;22.56;40.37;99867.09;4202664;28;22491;-69
2022/07/27 08:57:59;;;;;;;5.13;1.60;;;;;;;22.41;40.94;99869.50;4206288;28;20535;-63
2022/07/27 09:00:29;;;;;;;7.30;1.63;;;;;;;22.12;42.90;99866.59;4202577;28;20653;-64
2022/07/27 09:02:56;;;;;;;5.50;1.20;;;;;;;22.61;41.17;99872.63;4192181;28;21480;-65
2022/07/27 09:05:23;;;;;;;6.00;1.47;;;;;;;22.81;41.82;99871.44;4190597;28;20258;-65
2022/07/27 09:07:50;;;;;;;5.63;1.50;;;;;;;22.76;41.22;99864.00;4181492;28;20604;-64
2022/07/27 09:10:34;;;;;;;4.33;1.47;;;;;;;22.39;42.98;99861.59;4178779;28;26754;-64
2022/07/27 09:13:25;;;;;;;5.63;1.70;;;;;;;22.38;44.76;99873.47;4197251;28;20629;-63
2022/07/27 09:16:03;;;;;;;9.40;1.67;;;;;;;22.30;42.78;99874.66;4198660;28;20245;-65
2022/07/27 09:18:47;;;;;;;6.70;1.50;;;;;;;22.07;43.56;99869.19;4194247;28;20309;-62
2022/07/27 09:21:20;;;;;;;6.80;1.50;;;;;;;22.14;44.02;99859.06;4190075;28;20240;-65
2022/07/27 09:24:13;;;;;;;11.20;1.67;;;;;;;22.35;44.35;99863.09;4182008;28;20292;-62
2022/07/27 09:27:04;;;;;;;7.07;1.50;;;;;;;22.70;44.95;99860.34;4194304;28;20557;-65
2022/07/27 09:29:35;;;;;;;5.87;1.53;;;;;;;22.36;44.66;99869.34;4191993;28;20309;-63
2022/07/27 09:32:13;;;;;;;8.53;1.57;;;;;;;22.50;46.47;99866.19;4161385;28;20276;-65
2022/07/27 09:34:40;;;;;;;5.13;1.60;;;;;;;22.34;44.08;99862.28;4192481;28;20237;-58
2022/07/27 09:37:08;;;;;;;6.73;1.47;;;;;;;22.26;43.74;99859.09;4191658;28;20242;-62
2022/07/27 09:39:34;;;;;;;8.70;1.80;;;;;;;21.65;45.97;99861.94;4178126;28;21787;-62
2022/07/27 09:42:01;;;;;;;7.03;1.77;;;;;;;21.56;45.76;99857.09;4188246;28;20244;-53
2022/07/27 09:44:35;;;;;;;5.50;1.40;;;;;;;21.64;47.75;99859.47;4188487;28;20592;-66
2022/07/27 09:47:25;;;;;;;5.50;1.40;;;;;;;22.13;47.61;99854.72;4184706;28;20225;-65
2022/07/27 09:49:57;;;;;;;4.80;1.27;;;;;;;22.06;46.11;99851.31;4192851;28;20241;-65
2022/07/27 09:52:27;;;;;;;6.53;1.50;;;;;;;22.24;45.79;99859.34;4196755;28;20386;-63
2022/07/27 09:55:01;;;;;;;6.17;1.40;;;;;;;22.44;44.70;99858.16;4177129;28;20647;-63
2022/07/27 09:57:28;;;;;;;4.97;1.17;;;;;;;21.73;47.76;99855.38;4192185;28;20448;-63
2022/07/27 10:00:21;;;;;;;4.57;1.17;;;;;;;22.10;48.31;99847.03;4187745;28;20244;-64
2022/07/27 10:02:49;;;;;;;3.53;1.20;;;;;;;22.54;45.08;99863.78;4187966;28;21050;-67
2022/07/27 10:05:21;;;;;;;6.97;2.03;;;;;;;22.41;46.75;99864.06;4185866;28;20248;-64
2022/07/27 10:07:49;;;;;;;8.23;1.90;;;;;;;22.13;47.16;99869.09;4215826;28;22820;-65
2022/07/27 10:10:20;;;;;;;5.93;1.40;;;;;;;22.19;47.98;99867.31;4213375;28;21097;-64
2022/07/27 10:12:47;;;;;;;4.73;1.07;;;;;;;22.41;47.13;99864.06;4214363;28;20237;-64
2022/07/27 10:15:20;;;;;;;7.87;1.50;;;;;;;22.56;45.51;99864.38;4242982;28;20333;-65
2022/07/27 10:17:54;;;;;;;9.60;1.87;;;;;;;22.62;46.99;99868.88;4235454;28;20236;-43
2022/07/27 10:20:21;;;;;;;6.10;1.40;;;;;;;22.61;49.19;99872.63;4184154;28;20240;-53
2022/07/27 10:22:57;;;;;;;4.93;1.30;;;;;;;22.55;47.60;99870.88;4193517;28;20920;-66
2022/07/27 10:25:25;;;;;;;4.87;1.40;;;;;;;22.99;45.61;99876.69;4207350;28;20361;-66
2022/07/27 10:28:12;;;;;;;3.70;1.10;;;;;;;22.75;45.52;99876.72;4201723;28;20240;-64
2022/07/27 10:30:39;;;;;;;4.63;1.60;;;;;;;22.36;44.75;99872.06;4208051;28;21214;-64
2022/07/27 10:33:15;;;;;;;4.25;1.40;;;;;;;22.20;45.23;99868.97;4200238;28;20423;-65
2022/07/27 10:35:42;;;;;;;5.93;1.70;;;;;;;21.90;47.94;99875.31;4192836;28;21199;-64
2022/07/27 10:38:10;;;;;;;5.97;1.73;;;;;;;21.96;47.82;99873.56;4196362;28;20237;-66
2022/07/27 10:40:37;;;;;;;7.13;1.80;;;;;;;22.36;47.58;99867.47;4190094;28;21407;-65
2022/07/27 10:43:05;;;;;;;4.87;1.93;;;;;;;22.47;47.33;99863.09;4199968;28;20241;-69
2022/07/27 10:45:40;;;;;;;5.10;1.63;;;;;;;22.07;48.32;99859.19;4223948;28;20691;-65
2022/07/27 10:48:40;;;;;;;5.37;1.67;;;;;;;22.18;48.12;99864.84;4202875;28;20237;-73
2022/07/27 10:51:15;;;;;;;5.30;1.73;;;;;;;22.01;46.84;99859.28;4210808;28;20236;-74
2022/07/27 10:53:44;;;;;;;6.87;1.80;;;;;;;22.29;48.55;99856.75;4203048;28;20262;-72
2022/07/27 10:56:44;;;;;;;7.80;1.70;;;;;;;22.42;48.69;99858.38;4207768;28;21896;-73
2022/07/27 10:59:11;;;;;;;10.60;1.60;;;;;;;22.61;46.89;99855.53;4191633;28;21130;-69
2022/07/27 11:01:57;;;;;;;5.93;1.67;;;;;;;22.46;45.79;99859.56;4191889;28;20844;-76
2022/07/27 11:04:24;;;;;;;8.00;1.40;;;;;;;21.97;47.33;99852.72;4203841;28;20245;-76
2022/07/27 11:07:01;;;;;;;8.83;1.50;;;;;;;22.36;45.36;99861.22;4201404;28;20232;-69
2022/07/27 11:09:51;;;;;;;5.37;1.50;;;;;;;22.77;47.25;99868.34;4196319;28;20236;-66
2022/07/27 11:12:30;;;;;;;5.70;1.33;;;;;;;22.62;44.55;99859.91;4210233;28;20363;-67
2022/07/27 11:14:57;;;;;;;4.13;1.20;;;;;;;22.40;44.88;99868.63;4209879;28;20254;-65
2022/07/27 11:17:28;;;;;;;6.00;1.40;;;;;;;22.44;46.37;99860.88;4196606;28;20254;-68
2022/07/27 11:20:14;;;;;;;7.80;1.53;;;;;;;22.55;46.56;99857.31;4212961;28;20622;-63
2022/07/27 11:22:41;;;;;;;8.50;1.60;;;;;;;22.57;45.11;99870.63;4207720;28;22918;-63
2022/07/27 11:25:28;;;;;;;3.90;1.40;;;;;;;22.22;45.99;99853.34;4185455;28;20594;-73
2022/07/27 11:27:54;;;;;;;9.10;1.70;;;;;;;22.09;45.85;99850.81;4211498;28;20387;-75
2022/07/27 11:30:23;;;;;;;4.33;1.30;;;;;;;22.24;45.30;99859.34;4220450;28;21326;-75
2022/07/27 11:32:51;;;;;;;3.23;1.23;;;;;;;22.11;45.97;99854.94;4250749;28;20236;-74
2022/07/27 11:35:18;;;;;;;5.90;1.47;;;;;;;22.12;47.25;99851.19;4205535;28;20228;-74
2022/07/27 11:38:04;;;;;;;4.20;1.10;;;;;;;22.38;45.40;99859.09;4214220;28;21588;-76
2022/07/27 11:40:52;;;;;;;4.63;1.07;;;;;;;22.28;47.23;99854.28;4212881;28;20236;-74
2022/07/27 11:43:35;;;;;;;4.37;1.40;;;;;;;22.51;47.49;99861.56;4217159;28;20330;-74
2022/07/27 11:46:27;;;;;;;4.17;1.27;;;;;;;22.70;45.13;99856.81;4242680;28;20490;-76